sensor_id;sensor_type;location;lat;lon;timestamp;temperature;humidity
58951;DHT22;44730;53.158;6.398;2023-03-03T00:00:31;2.10;99.90
58951;DHT22;44730;53.158;6.398;2023-03-03T00:03:04;2.00;99.90
58951;DHT22;44730;53.158;6.398;2023-03-03T00:05:33;2.00;99.90
58951;DHT22;44730;53.158;6.398;2023-03-03T00:08:00;2.30;99.90
58951;DHT22;44730;53.158;6.398;2023-03-03T00:10:26;1.90;99.90
58951;DHT22;44730;53.158;6.398;2023-03-03T00:12:52;1.90;99.90
58951;DHT22;44730;53.158;6.398;2023-03-03T00:15:20;1.90;99.90
58951;DHT22;44730;53.158;6.398;2023-03-03T00:17:46;1.90;99.90
58951;DHT22;44730;53.158;6.398;2023-03-03T00:20:36;1.80;99.90
58951;DHT22;44730;53.158;6.398;2023-03-03T00:23:40;1.80;99.90
58951;DHT22;44730;53.158;6.398;2023-03-03T00:26:28;1.70;99.90
58951;DHT22;44730;53.158;6.398;2023-03-03T00:28:58;1.70;99.90
58951;DHT22;44730;53.158;6.398;2023-03-03T00:31:32;1.60;99.90
58951;DHT22;44730;53.158;6.398;2023-03-03T00:34:18;2.00;99.90
58951;DHT22;44730;53.158;6.398;2023-03-03T00:36:46;1.60;99.90
58951;DHT22;44730;53.158;6.398;2023-03-03T00:41:39;1.50;99.90
58951;DHT22;44730;53.158;6.398;2023-03-03T00:44:40;1.50;99.90
58951;DHT22;44730;53.158;6.398;2023-03-03T00:49:42;1.50;99.90
58951;DHT22;44730;53.158;6.398;2023-03-03T00:52:17;2.40;99.90
58951;DHT22;44730;53.158;6.398;2023-03-03T00:54:43;1.80;99.90
58951;DHT22;44730;53.158;6.398;2023-03-03T00:57:10;1.40;99.90
58951;DHT22;44730;53.158;6.398;2023-03-03T00:59:37;1.40;99.90
58951;DHT22;44730;53.158;6.398;2023-03-03T01:02:04;2.80;99.90
58951;DHT22;44730;53.158;6.398;2023-03-03T01:04:30;2.20;99.90
58951;DHT22;44730;53.158;6.398;2023-03-03T01:06:57;1.30;99.90
58951;DHT22;44730;53.158;6.398;2023-03-03T01:09:23;1.30;99.90
58951;DHT22;44730;53.158;6.398;2023-03-03T01:11:50;1.20;99.90
58951;DHT22;44730;53.158;6.398;2023-03-03T01:14:16;2.00;99.90
58951;DHT22;44730;53.158;6.398;2023-03-03T01:16:43;1.60;99.90
58951;DHT22;44730;53.158;6.398;2023-03-03T01:19:09;1.00;99.90
58951;DHT22;44730;53.158;6.398;2023-03-03T01:21:35;1.10;99.90
58951;DHT22;44730;53.158;6.398;2023-03-03T01:24:00;1.00;99.90
58951;DHT22;44730;53.158;6.398;2023-03-03T01:26:26;1.00;99.90
58951;DHT22;44730;53.158;6.398;2023-03-03T01:28:52;1.00;99.90
58951;DHT22;44730;53.158;6.398;2023-03-03T01:31:18;1.00;99.90
58951;DHT22;44730;53.158;6.398;2023-03-03T01:33:44;2.00;99.90
58951;DHT22;44730;53.158;6.398;2023-03-03T01:36:09;1.00;99.90
58951;DHT22;44730;53.158;6.398;2023-03-03T01:38:39;0.90;99.90
58951;DHT22;44730;53.158;6.398;2023-03-03T01:41:05;0.90;99.90
58951;DHT22;44730;53.158;6.398;2023-03-03T01:43:32;0.90;99.90
58951;DHT22;44730;53.158;6.398;2023-03-03T01:48:33;0.80;99.90
58951;DHT22;44730;53.158;6.398;2023-03-03T01:51:05;0.80;99.90
58951;DHT22;44730;53.158;6.398;2023-03-03T01:53:43;0.80;99.90
58951;DHT22;44730;53.158;6.398;2023-03-03T01:56:10;0.80;99.90
58951;DHT22;44730;53.158;6.398;2023-03-03T01:58:40;0.70;99.90
58951;DHT22;44730;53.158;6.398;2023-03-03T02:01:14;0.60;99.90
58951;DHT22;44730;53.158;6.398;2023-03-03T02:03:41;0.60;99.90
58951;DHT22;44730;53.158;6.398;2023-03-03T02:06:12;0.50;99.90
58951;DHT22;44730;53.158;6.398;2023-03-03T02:11:16;0.40;99.90
58951;DHT22;44730;53.158;6.398;2023-03-03T02:13:45;0.70;99.90
58951;DHT22;44730;53.158;6.398;2023-03-03T02:16:11;0.40;99.90
58951;DHT22;44730;53.158;6.398;2023-03-03T02:18:37;0.30;99.90
58951;DHT22;44730;53.158;6.398;2023-03-03T02:21:08;0.20;99.90
58951;DHT22;44730;53.158;6.398;2023-03-03T02:26:09;0.10;99.90
58951;DHT22;44730;53.158;6.398;2023-03-03T02:28:37;0.10;99.90
58951;DHT22;44730;53.158;6.398;2023-03-03T02:31:07;0.10;99.90
58951;DHT22;44730;53.158;6.398;2023-03-03T02:33:35;0.00;99.90
58951;DHT22;44730;53.158;6.398;2023-03-03T02:36:01;-0.10;99.90
58951;DHT22;44730;53.158;6.398;2023-03-03T02:40:59;-0.10;99.90
58951;DHT22;44730;53.158;6.398;2023-03-03T02:43:32;1.10;99.90
58951;DHT22;44730;53.158;6.398;2023-03-03T02:46:01;-0.20;99.90
58951;DHT22;44730;53.158;6.398;2023-03-03T02:48:27;-0.30;99.90
58951;DHT22;44730;53.158;6.398;2023-03-03T02:50:52;-0.30;99.90
58951;DHT22;44730;53.158;6.398;2023-03-03T02:53:18;-0.40;99.90
58951;DHT22;44730;53.158;6.398;2023-03-03T02:55:44;-0.40;99.90
58951;DHT22;44730;53.158;6.398;2023-03-03T02:58:10;0.70;99.90
58951;DHT22;44730;53.158;6.398;2023-03-03T03:00:36;-0.50;99.90
58951;DHT22;44730;53.158;6.398;2023-03-03T03:03:02;-0.20;99.90
58951;DHT22;44730;53.158;6.398;2023-03-03T03:05:27;-0.60;99.90
58951;DHT22;44730;53.158;6.398;2023-03-03T03:07:53;-0.60;99.90
58951;DHT22;44730;53.158;6.398;2023-03-03T03:10:19;-0.50;99.90
58951;DHT22;44730;53.158;6.398;2023-03-03T03:12:45;-0.50;99.90
58951;DHT22;44730;53.158;6.398;2023-03-03T03:15:10;-0.50;99.90
58951;DHT22;44730;53.158;6.398;2023-03-03T03:17:37;-0.50;99.90
58951;DHT22;44730;53.158;6.398;2023-03-03T03:20:03;-0.50;99.90
58951;DHT22;44730;53.158;6.398;2023-03-03T03:22:29;-0.60;99.90
58951;DHT22;44730;53.158;6.398;2023-03-03T03:24:55;-0.60;99.90
58951;DHT22;44730;53.158;6.398;2023-03-03T03:27:21;-0.60;99.90
58951;DHT22;44730;53.158;6.398;2023-03-03T03:29:48;-0.60;99.90
58951;DHT22;44730;53.158;6.398;2023-03-03T03:32:13;-0.70;99.90
58951;DHT22;44730;53.158;6.398;2023-03-03T03:34:39;-0.70;99.90
58951;DHT22;44730;53.158;6.398;2023-03-03T03:37:05;-0.40;99.90
58951;DHT22;44730;53.158;6.398;2023-03-03T03:39:31;-0.80;99.90
58951;DHT22;44730;53.158;6.398;2023-03-03T03:41:56;-0.80;99.90
58951;DHT22;44730;53.158;6.398;2023-03-03T03:44:22;-0.90;99.90
58951;DHT22;44730;53.158;6.398;2023-03-03T03:46:49;-0.90;99.90
58951;DHT22;44730;53.158;6.398;2023-03-03T03:49:15;-0.90;99.90
58951;DHT22;44730;53.158;6.398;2023-03-03T03:51:41;-1.00;99.90
58951;DHT22;44730;53.158;6.398;2023-03-03T03:54:07;-1.00;99.90
58951;DHT22;44730;53.158;6.398;2023-03-03T03:56:33;-1.00;99.90
58951;DHT22;44730;53.158;6.398;2023-03-03T03:58:58;-1.10;99.90
58951;DHT22;44730;53.158;6.398;2023-03-03T04:01:25;-1.10;99.90
58951;DHT22;44730;53.158;6.398;2023-03-03T04:03:51;-1.10;99.90
58951;DHT22;44730;53.158;6.398;2023-03-03T04:06:17;-1.20;99.90
58951;DHT22;44730;53.158;6.398;2023-03-03T04:08:43;-1.20;99.90
58951;DHT22;44730;53.158;6.398;2023-03-03T04:11:11;0.40;99.90
58951;DHT22;44730;53.158;6.398;2023-03-03T04:13:37;-0.10;99.90
58951;DHT22;44730;53.158;6.398;2023-03-03T04:16:03;-1.30;99.90
58951;DHT22;44730;53.158;6.398;2023-03-03T04:18:28;-1.30;99.90
58951;DHT22;44730;53.158;6.398;2023-03-03T04:20:54;-1.40;99.90
58951;DHT22;44730;53.158;6.398;2023-03-03T04:23:20;-1.40;99.90
58951;DHT22;44730;53.158;6.398;2023-03-03T04:25:47;-1.40;99.90
58951;DHT22;44730;53.158;6.398;2023-03-03T04:28:16;-1.50;99.90
58951;DHT22;44730;53.158;6.398;2023-03-03T04:30:42;-1.50;99.90
58951;DHT22;44730;53.158;6.398;2023-03-03T04:33:07;-1.50;99.90
58951;DHT22;44730;53.158;6.398;2023-03-03T04:35:33;-1.60;99.90
58951;DHT22;44730;53.158;6.398;2023-03-03T04:37:59;-1.60;99.90
58951;DHT22;44730;53.158;6.398;2023-03-03T04:40:25;-1.60;99.90
58951;DHT22;44730;53.158;6.398;2023-03-03T04:42:51;-1.60;99.90
58951;DHT22;44730;53.158;6.398;2023-03-03T04:45:17;-1.10;99.90
58951;DHT22;44730;53.158;6.398;2023-03-03T04:47:43;-1.60;99.90
58951;DHT22;44730;53.158;6.398;2023-03-03T04:50:10;-1.70;99.90
58951;DHT22;44730;53.158;6.398;2023-03-03T04:52:41;-1.70;99.90
58951;DHT22;44730;53.158;6.398;2023-03-03T04:55:08;-1.70;99.90
58951;DHT22;44730;53.158;6.398;2023-03-03T04:57:35;-1.80;99.90
58951;DHT22;44730;53.158;6.398;2023-03-03T05:00:01;-1.80;99.90
58951;DHT22;44730;53.158;6.398;2023-03-03T05:02:26;-1.80;99.90
58951;DHT22;44730;53.158;6.398;2023-03-03T05:04:52;-1.80;99.90
58951;DHT22;44730;53.158;6.398;2023-03-03T05:07:20;-1.80;99.90
58951;DHT22;44730;53.158;6.398;2023-03-03T05:09:46;-1.80;99.90
58951;DHT22;44730;53.158;6.398;2023-03-03T05:12:13;-1.90;99.90
58951;DHT22;44730;53.158;6.398;2023-03-03T05:14:38;-1.90;99.90
58951;DHT22;44730;53.158;6.398;2023-03-03T05:17:04;-1.90;99.90
58951;DHT22;44730;53.158;6.398;2023-03-03T05:19:30;-1.60;99.90
58951;DHT22;44730;53.158;6.398;2023-03-03T05:21:56;-1.90;99.90
58951;DHT22;44730;53.158;6.398;2023-03-03T05:24:23;-1.90;99.90
58951;DHT22;44730;53.158;6.398;2023-03-03T05:26:49;-1.70;99.90
58951;DHT22;44730;53.158;6.398;2023-03-03T05:29:14;-1.90;99.90
58951;DHT22;44730;53.158;6.398;2023-03-03T05:31:40;-1.80;99.90
58951;DHT22;44730;53.158;6.398;2023-03-03T05:34:06;-1.80;99.90
58951;DHT22;44730;53.158;6.398;2023-03-03T05:36:32;-1.80;99.90
58951;DHT22;44730;53.158;6.398;2023-03-03T05:38:58;-1.80;99.90
58951;DHT22;44730;53.158;6.398;2023-03-03T05:41:24;-1.20;99.90
58951;DHT22;44730;53.158;6.398;2023-03-03T05:43:49;-1.90;99.90
58951;DHT22;44730;53.158;6.398;2023-03-03T05:46:15;-1.20;99.90
58951;DHT22;44730;53.158;6.398;2023-03-03T05:48:41;-1.90;99.90
58951;DHT22;44730;53.158;6.398;2023-03-03T05:51:07;-1.90;99.90
58951;DHT22;44730;53.158;6.398;2023-03-03T05:53:36;-2.00;99.90
58951;DHT22;44730;53.158;6.398;2023-03-03T05:56:02;-2.00;99.90
58951;DHT22;44730;53.158;6.398;2023-03-03T05:58:28;-2.00;99.90
58951;DHT22;44730;53.158;6.398;2023-03-03T06:00:54;-2.00;99.90
58951;DHT22;44730;53.158;6.398;2023-03-03T06:03:20;-2.00;99.90
58951;DHT22;44730;53.158;6.398;2023-03-03T06:05:46;-1.80;99.90
58951;DHT22;44730;53.158;6.398;2023-03-03T06:08:12;-2.00;99.90
58951;DHT22;44730;53.158;6.398;2023-03-03T06:10:38;-2.10;99.90
58951;DHT22;44730;53.158;6.398;2023-03-03T06:13:03;-2.10;99.90
58951;DHT22;44730;53.158;6.398;2023-03-03T06:15:29;-2.10;99.90
58951;DHT22;44730;53.158;6.398;2023-03-03T06:17:55;-2.10;99.90
58951;DHT22;44730;53.158;6.398;2023-03-03T06:20:21;-2.10;99.90
58951;DHT22;44730;53.158;6.398;2023-03-03T06:22:46;-2.20;99.90
58951;DHT22;44730;53.158;6.398;2023-03-03T06:25:12;-2.10;99.90
58951;DHT22;44730;53.158;6.398;2023-03-03T06:27:41;-2.10;99.90
58951;DHT22;44730;53.158;6.398;2023-03-03T06:30:07;-2.20;99.90
58951;DHT22;44730;53.158;6.398;2023-03-03T06:32:34;-2.20;99.90
58951;DHT22;44730;53.158;6.398;2023-03-03T06:35:03;-2.10;99.90
58951;DHT22;44730;53.158;6.398;2023-03-03T06:37:31;-2.10;99.90
58951;DHT22;44730;53.158;6.398;2023-03-03T06:39:56;-2.10;99.90
58951;DHT22;44730;53.158;6.398;2023-03-03T06:42:27;-2.10;99.90
58951;DHT22;44730;53.158;6.398;2023-03-03T06:44:53;-2.10;99.90
58951;DHT22;44730;53.158;6.398;2023-03-03T06:47:18;-2.00;99.90
58951;DHT22;44730;53.158;6.398;2023-03-03T06:49:44;-1.20;99.90
58951;DHT22;44730;53.158;6.398;2023-03-03T06:52:18;-2.00;99.90
58951;DHT22;44730;53.158;6.398;2023-03-03T06:54:46;-1.90;99.90
58951;DHT22;44730;53.158;6.398;2023-03-03T06:57:31;-1.90;99.90
58951;DHT22;44730;53.158;6.398;2023-03-03T07:00:18;-1.80;99.90
58951;DHT22;44730;53.158;6.398;2023-03-03T07:02:46;-1.70;99.90
58951;DHT22;44730;53.158;6.398;2023-03-03T07:05:16;-1.60;99.90
58951;DHT22;44730;53.158;6.398;2023-03-03T07:07:43;-1.60;99.90
58951;DHT22;44730;53.158;6.398;2023-03-03T07:10:21;-1.60;99.90
58951;DHT22;44730;53.158;6.398;2023-03-03T07:12:48;-1.40;99.90
58951;DHT22;44730;53.158;6.398;2023-03-03T07:15:32;-1.60;99.90
58951;DHT22;44730;53.158;6.398;2023-03-03T07:17:58;-1.20;99.90
58951;DHT22;44730;53.158;6.398;2023-03-03T07:20:35;0.20;99.90
58951;DHT22;44730;53.158;6.398;2023-03-03T07:23:32;-0.40;99.90
58951;DHT22;44730;53.158;6.398;2023-03-03T07:26:00;0.10;99.90
58951;DHT22;44730;53.158;6.398;2023-03-03T07:28:28;0.20;99.90
58951;DHT22;44730;53.158;6.398;2023-03-03T07:30:56;0.70;99.90
58951;DHT22;44730;53.158;6.398;2023-03-03T07:33:34;1.10;99.90
58951;DHT22;44730;53.158;6.398;2023-03-03T07:36:01;1.70;99.90
58951;DHT22;44730;53.158;6.398;2023-03-03T07:41:01;2.10;99.90
58951;DHT22;44730;53.158;6.398;2023-03-03T07:43:37;2.10;99.90
58951;DHT22;44730;53.158;6.398;2023-03-03T07:48:41;1.20;99.90
58951;DHT22;44730;53.158;6.398;2023-03-03T07:51:37;1.20;99.90
58951;DHT22;44730;53.158;6.398;2023-03-03T07:54:34;1.00;99.90
58951;DHT22;44730;53.158;6.398;2023-03-03T07:57:24;1.00;99.90
58951;DHT22;44730;53.158;6.398;2023-03-03T08:00:03;0.90;99.90
58951;DHT22;44730;53.158;6.398;2023-03-03T08:02:47;0.90;99.90
58951;DHT22;44730;53.158;6.398;2023-03-03T08:05:30;0.90;99.90
58951;DHT22;44730;53.158;6.398;2023-03-03T08:08:13;0.90;99.90
58951;DHT22;44730;53.158;6.398;2023-03-03T08:10:50;0.80;99.90
58951;DHT22;44730;53.158;6.398;2023-03-03T08:15:44;1.00;99.90
58951;DHT22;44730;53.158;6.398;2023-03-03T08:18:34;1.60;99.90
58951;DHT22;44730;53.158;6.398;2023-03-03T08:23:32;1.00;99.90
58951;DHT22;44730;53.158;6.398;2023-03-03T08:25:58;1.00;99.90
58951;DHT22;44730;53.158;6.398;2023-03-03T08:28:24;1.00;99.90
58951;DHT22;44730;53.158;6.398;2023-03-03T08:30:50;1.10;99.90
58951;DHT22;44730;53.158;6.398;2023-03-03T08:33:17;1.10;99.90
58951;DHT22;44730;53.158;6.398;2023-03-03T08:35:43;1.20;99.90
58951;DHT22;44730;53.158;6.398;2023-03-03T08:38:10;1.20;99.90
58951;DHT22;44730;53.158;6.398;2023-03-03T08:40:37;1.20;99.90
58951;DHT22;44730;53.158;6.398;2023-03-03T08:43:03;1.30;99.90
58951;DHT22;44730;53.158;6.398;2023-03-03T08:45:28;1.30;99.90
58951;DHT22;44730;53.158;6.398;2023-03-03T08:47:55;1.40;99.90
58951;DHT22;44730;53.158;6.398;2023-03-03T08:50:22;1.50;99.90
58951;DHT22;44730;53.158;6.398;2023-03-03T08:52:48;1.50;99.90
58951;DHT22;44730;53.158;6.398;2023-03-03T08:55:14;2.40;99.90
58951;DHT22;44730;53.158;6.398;2023-03-03T08:57:40;1.70;99.90
58951;DHT22;44730;53.158;6.398;2023-03-03T09:00:08;1.80;99.90
58951;DHT22;44730;53.158;6.398;2023-03-03T09:02:34;1.90;99.90
58951;DHT22;44730;53.158;6.398;2023-03-03T09:05:00;2.00;99.90
58951;DHT22;44730;53.158;6.398;2023-03-03T09:07:25;2.00;99.90
58951;DHT22;44730;53.158;6.398;2023-03-03T09:09:51;2.10;99.90
58951;DHT22;44730;53.158;6.398;2023-03-03T09:12:21;2.50;99.90
58951;DHT22;44730;53.158;6.398;2023-03-03T09:14:50;2.40;99.90
58951;DHT22;44730;53.158;6.398;2023-03-03T09:17:33;2.70;99.90
58951;DHT22;44730;53.158;6.398;2023-03-03T09:20:14;3.80;99.90
58951;DHT22;44730;53.158;6.398;2023-03-03T09:22:44;2.80;99.90
58951;DHT22;44730;53.158;6.398;2023-03-03T09:25:33;2.90;99.90
58951;DHT22;44730;53.158;6.398;2023-03-03T09:28:00;3.10;99.90
58951;DHT22;44730;53.158;6.398;2023-03-03T09:30:43;3.40;99.90
58951;DHT22;44730;53.158;6.398;2023-03-03T09:33:40;3.50;99.90
58951;DHT22;44730;53.158;6.398;2023-03-03T09:38:52;3.90;99.90
58951;DHT22;44730;53.158;6.398;2023-03-03T09:49:31;4.60;99.90
58951;DHT22;44730;53.158;6.398;2023-03-03T09:52:26;4.70;99.90
58951;DHT22;44730;53.158;6.398;2023-03-03T10:25:03;6.70;99.90
58951;DHT22;44730;53.158;6.398;2023-03-03T10:28:28;7.00;99.90
58951;DHT22;44730;53.158;6.398;2023-03-03T10:30:50;7.20;99.90
58951;DHT22;44730;53.158;6.398;2023-03-03T10:49:40;8.00;99.90
58951;DHT22;44730;53.158;6.398;2023-03-03T10:52:36;7.90;99.90
58951;DHT22;44730;53.158;6.398;2023-03-03T11:03:37;7.90;99.90
58951;DHT22;44730;53.158;6.398;2023-03-03T11:06:37;8.10;99.90
58951;DHT22;44730;53.158;6.398;2023-03-03T11:11:45;8.40;99.90
58951;DHT22;44730;53.158;6.398;2023-03-03T11:14:20;8.50;99.90
58951;DHT22;44730;53.158;6.398;2023-03-03T11:22:31;8.70;99.90
58951;DHT22;44730;53.158;6.398;2023-03-03T11:25:10;8.80;99.90
58951;DHT22;44730;53.158;6.398;2023-03-03T11:40:31;9.00;99.90
58951;DHT22;44730;53.158;6.398;2023-03-03T11:45:50;9.20;99.90
58951;DHT22;44730;53.158;6.398;2023-03-03T11:54:04;9.20;99.90
58951;DHT22;44730;53.158;6.398;2023-03-03T11:56:40;9.20;99.90
58951;DHT22;44730;53.158;6.398;2023-03-03T12:04:49;9.20;99.90
58951;DHT22;44730;53.158;6.398;2023-03-03T12:07:26;9.20;99.90
58951;DHT22;44730;53.158;6.398;2023-03-03T12:18:34;9.00;99.90
58951;DHT22;44730;53.158;6.398;2023-03-03T12:26:18;10.90;99.90
58951;DHT22;44730;53.158;6.398;2023-03-03T12:28:56;11.10;99.90
58951;DHT22;44730;53.158;6.398;2023-03-03T12:34:39;10.70;99.90
58951;DHT22;44730;53.158;6.398;2023-03-03T12:37:30;10.40;99.90
58951;DHT22;44730;53.158;6.398;2023-03-03T12:40:15;10.10;99.90
58951;DHT22;44730;53.158;6.398;2023-03-03T12:48:15;11.90;99.90
58951;DHT22;44730;53.158;6.398;2023-03-03T12:56:06;11.40;99.90
58951;DHT22;44730;53.158;6.398;2023-03-03T12:59:24;11.30;99.90
58951;DHT22;44730;53.158;6.398;2023-03-03T13:02:18;11.00;99.90
58951;DHT22;44730;53.158;6.398;2023-03-03T13:07:55;10.80;99.90
58951;DHT22;44730;53.158;6.398;2023-03-03T13:10:41;11.10;99.90
58951;DHT22;44730;53.158;6.398;2023-03-03T13:13:12;11.10;99.90
58951;DHT22;44730;53.158;6.398;2023-03-03T13:15:51;11.40;99.90
58951;DHT22;44730;53.158;6.398;2023-03-03T13:18:29;12.60;99.90
58951;DHT22;44730;53.158;6.398;2023-03-03T13:21:09;13.70;99.90
58951;DHT22;44730;53.158;6.398;2023-03-03T13:23:53;13.80;99.90
58951;DHT22;44730;53.158;6.398;2023-03-03T13:26:38;13.20;99.90
58951;DHT22;44730;53.158;6.398;2023-03-03T13:29:18;12.70;99.90
58951;DHT22;44730;53.158;6.398;2023-03-03T13:31:48;12.60;99.90
58951;DHT22;44730;53.158;6.398;2023-03-03T13:34:24;12.60;99.90
58951;DHT22;44730;53.158;6.398;2023-03-03T13:39:55;12.20;99.90
58951;DHT22;44730;53.158;6.398;2023-03-03T13:45:35;12.00;99.90
58951;DHT22;44730;53.158;6.398;2023-03-03T13:48:13;11.70;99.90
58951;DHT22;44730;53.158;6.398;2023-03-03T14:04:52;10.00;99.90
58951;DHT22;44730;53.158;6.398;2023-03-03T14:10:29;9.80;99.90
58951;DHT22;44730;53.158;6.398;2023-03-03T14:13:28;9.70;99.90
58951;DHT22;44730;53.158;6.398;2023-03-03T14:16:07;9.70;99.90
58951;DHT22;44730;53.158;6.398;2023-03-03T14:18:44;9.70;99.90
58951;DHT22;44730;53.158;6.398;2023-03-03T14:21:18;9.60;99.90
58951;DHT22;44730;53.158;6.398;2023-03-03T14:24:16;9.50;99.90
58951;DHT22;44730;53.158;6.398;2023-03-03T14:31:59;9.30;99.90
58951;DHT22;44730;53.158;6.398;2023-03-03T14:37:21;9.10;99.90
58951;DHT22;44730;53.158;6.398;2023-03-03T14:42:31;9.10;99.90
58951;DHT22;44730;53.158;6.398;2023-03-03T14:45:00;8.90;99.90
58951;DHT22;44730;53.158;6.398;2023-03-03T14:47:29;8.90;99.90
58951;DHT22;44730;53.158;6.398;2023-03-03T14:49:57;8.80;99.90
58951;DHT22;44730;53.158;6.398;2023-03-03T14:52:33;8.70;99.90
58951;DHT22;44730;53.158;6.398;2023-03-03T14:55:01;8.70;99.90
58951;DHT22;44730;53.158;6.398;2023-03-03T15:03:02;8.60;99.90
58951;DHT22;44730;53.158;6.398;2023-03-03T15:05:33;8.50;99.90
58951;DHT22;44730;53.158;6.398;2023-03-03T15:16:37;8.20;99.90
58951;DHT22;44730;53.158;6.398;2023-03-03T15:21:58;8.00;99.90
58951;DHT22;44730;53.158;6.398;2023-03-03T15:24:41;8.00;99.90
58951;DHT22;44730;53.158;6.398;2023-03-03T15:27:21;8.00;99.90
58951;DHT22;44730;53.158;6.398;2023-03-03T15:30:03;8.00;99.90
58951;DHT22;44730;53.158;6.398;2023-03-03T15:32:38;7.90;99.90
58951;DHT22;44730;53.158;6.398;2023-03-03T15:37:55;7.90;99.90
58951;DHT22;44730;53.158;6.398;2023-03-03T15:40:38;7.90;99.90
58951;DHT22;44730;53.158;6.398;2023-03-03T15:43:27;7.80;99.90
58951;DHT22;44730;53.158;6.398;2023-03-03T15:54:58;7.80;99.90
58951;DHT22;44730;53.158;6.398;2023-03-03T15:57:57;7.80;99.90
58951;DHT22;44730;53.158;6.398;2023-03-03T16:01:05;7.80;99.90
58951;DHT22;44730;53.158;6.398;2023-03-03T16:04:12;7.70;99.90
58951;DHT22;44730;53.158;6.398;2023-03-03T16:07:04;7.70;99.90
58951;DHT22;44730;53.158;6.398;2023-03-03T16:12:36;7.50;99.90
58951;DHT22;44730;53.158;6.398;2023-03-03T16:27:11;7.30;99.90
58951;DHT22;44730;53.158;6.398;2023-03-03T16:35:25;7.20;99.90
58951;DHT22;44730;53.158;6.398;2023-03-03T16:38:01;7.10;99.90
58951;DHT22;44730;53.158;6.398;2023-03-03T16:40:58;7.10;99.90
58951;DHT22;44730;53.158;6.398;2023-03-03T16:46:30;6.90;99.90
58951;DHT22;44730;53.158;6.398;2023-03-03T16:49:00;6.90;99.90
58951;DHT22;44730;53.158;6.398;2023-03-03T16:51:30;6.80;99.90
58951;DHT22;44730;53.158;6.398;2023-03-03T16:54:13;6.90;99.90
58951;DHT22;44730;53.158;6.398;2023-03-03T16:56:51;6.80;99.90
58951;DHT22;44730;53.158;6.398;2023-03-03T16:59:51;6.80;99.90
58951;DHT22;44730;53.158;6.398;2023-03-03T17:02:52;6.70;99.90
58951;DHT22;44730;53.158;6.398;2023-03-03T17:08:30;6.70;99.90
58951;DHT22;44730;53.158;6.398;2023-03-03T17:33:08;6.50;99.90
58951;DHT22;44730;53.158;6.398;2023-03-03T17:38:37;6.40;99.90
58951;DHT22;44730;53.158;6.398;2023-03-03T17:44:18;6.40;99.90
58951;DHT22;44730;53.158;6.398;2023-03-03T17:47:04;6.40;99.90
58951;DHT22;44730;53.158;6.398;2023-03-03T17:52:46;6.30;99.90
58951;DHT22;44730;53.158;6.398;2023-03-03T17:55:28;6.30;99.90
58951;DHT22;44730;53.158;6.398;2023-03-03T17:58:20;6.30;99.90
58951;DHT22;44730;53.158;6.398;2023-03-03T18:06:33;6.30;99.90
58951;DHT22;44730;53.158;6.398;2023-03-03T18:22:11;6.20;99.90
58951;DHT22;44730;53.158;6.398;2023-03-03T18:27:37;6.10;99.90
58951;DHT22;44730;53.158;6.398;2023-03-03T18:41:09;6.10;99.90
58951;DHT22;44730;53.158;6.398;2023-03-03T18:49:05;6.10;99.90
58951;DHT22;44730;53.158;6.398;2023-03-03T19:02:19;6.00;99.90
58951;DHT22;44730;53.158;6.398;2023-03-03T19:12:59;6.00;99.90
58951;DHT22;44730;53.158;6.398;2023-03-03T19:18:16;6.00;99.90
58951;DHT22;44730;53.158;6.398;2023-03-03T19:20:47;6.00;99.90
58951;DHT22;44730;53.158;6.398;2023-03-03T19:23:22;6.00;99.90
58951;DHT22;44730;53.158;6.398;2023-03-03T19:35:06;5.90;99.90
58951;DHT22;44730;53.158;6.398;2023-03-03T19:45:48;5.80;99.90
58951;DHT22;44730;53.158;6.398;2023-03-03T19:56:41;5.80;99.90
58951;DHT22;44730;53.158;6.398;2023-03-03T19:59:42;5.80;99.90
58951;DHT22;44730;53.158;6.398;2023-03-03T20:02:33;5.80;99.90
58951;DHT22;44730;53.158;6.398;2023-03-03T20:05:09;5.80;99.90
58951;DHT22;44730;53.158;6.398;2023-03-03T20:07:55;5.80;99.90
58951;DHT22;44730;53.158;6.398;2023-03-03T20:11:00;5.80;99.90
58951;DHT22;44730;53.158;6.398;2023-03-03T20:13:33;5.70;99.90
58951;DHT22;44730;53.158;6.398;2023-03-03T20:19:09;5.70;99.90
58951;DHT22;44730;53.158;6.398;2023-03-03T20:24:43;5.70;99.90
58951;DHT22;44730;53.158;6.398;2023-03-03T20:27:16;5.70;99.90
58951;DHT22;44730;53.158;6.398;2023-03-03T20:29:49;5.80;99.90
58951;DHT22;44730;53.158;6.398;2023-03-03T20:32:37;5.80;99.90
58951;DHT22;44730;53.158;6.398;2023-03-03T20:46:08;5.80;99.90
58951;DHT22;44730;53.158;6.398;2023-03-03T20:53:48;5.80;99.90
58951;DHT22;44730;53.158;6.398;2023-03-03T20:56:30;5.80;99.90
58951;DHT22;44730;53.158;6.398;2023-03-03T20:59:20;5.80;99.90
58951;DHT22;44730;53.158;6.398;2023-03-03T21:04:28;5.80;99.90
58951;DHT22;44730;53.158;6.398;2023-03-03T21:06:56;6.00;99.90
58951;DHT22;44730;53.158;6.398;2023-03-03T21:11:51;5.90;99.90
58951;DHT22;44730;53.158;6.398;2023-03-03T21:14:29;5.80;99.90
58951;DHT22;44730;53.158;6.398;2023-03-03T21:16:58;5.80;99.90
58951;DHT22;44730;53.158;6.398;2023-03-03T21:19:34;5.80;99.90
58951;DHT22;44730;53.158;6.398;2023-03-03T21:22:03;5.80;99.90
58951;DHT22;44730;53.158;6.398;2023-03-03T21:24:49;5.80;99.90
58951;DHT22;44730;53.158;6.398;2023-03-03T21:27:29;5.90;99.90
58951;DHT22;44730;53.158;6.398;2023-03-03T21:30:13;5.80;99.90
58951;DHT22;44730;53.158;6.398;2023-03-03T21:32:47;5.80;99.90
58951;DHT22;44730;53.158;6.398;2023-03-03T21:35:18;6.40;99.90
58951;DHT22;44730;53.158;6.398;2023-03-03T21:37:54;5.80;99.90
58951;DHT22;44730;53.158;6.398;2023-03-03T21:40:22;5.90;99.90
58951;DHT22;44730;53.158;6.398;2023-03-03T21:42:53;5.90;99.90
58951;DHT22;44730;53.158;6.398;2023-03-03T21:45:19;5.90;99.90
58951;DHT22;44730;53.158;6.398;2023-03-03T21:47:46;5.90;99.90
58951;DHT22;44730;53.158;6.398;2023-03-03T21:50:13;5.80;99.90
58951;DHT22;44730;53.158;6.398;2023-03-03T21:52:38;5.90;99.90
58951;DHT22;44730;53.158;6.398;2023-03-03T21:55:05;5.80;99.90
58951;DHT22;44730;53.158;6.398;2023-03-03T21:57:31;5.80;99.90
58951;DHT22;44730;53.158;6.398;2023-03-03T21:59:57;5.80;99.90
58951;DHT22;44730;53.158;6.398;2023-03-03T22:02:22;6.00;99.90
58951;DHT22;44730;53.158;6.398;2023-03-03T22:04:48;5.90;99.90
58951;DHT22;44730;53.158;6.398;2023-03-03T22:07:14;5.80;99.90
58951;DHT22;44730;53.158;6.398;2023-03-03T22:09:39;5.80;99.90
58951;DHT22;44730;53.158;6.398;2023-03-03T22:12:06;5.80;99.90
58951;DHT22;44730;53.158;6.398;2023-03-03T22:14:32;5.80;99.90
58951;DHT22;44730;53.158;6.398;2023-03-03T22:16:58;5.80;99.90
58951;DHT22;44730;53.158;6.398;2023-03-03T22:19:24;5.80;99.90
58951;DHT22;44730;53.158;6.398;2023-03-03T22:21:50;5.80;99.90
58951;DHT22;44730;53.158;6.398;2023-03-03T22:24:16;5.80;99.90
58951;DHT22;44730;53.158;6.398;2023-03-03T22:26:42;5.80;99.90
58951;DHT22;44730;53.158;6.398;2023-03-03T22:29:08;5.80;99.90
58951;DHT22;44730;53.158;6.398;2023-03-03T22:31:35;6.10;99.90
58951;DHT22;44730;53.158;6.398;2023-03-03T22:34:00;5.80;99.90
58951;DHT22;44730;53.158;6.398;2023-03-03T22:36:26;5.80;99.90
58951;DHT22;44730;53.158;6.398;2023-03-03T22:38:52;5.70;99.90
58951;DHT22;44730;53.158;6.398;2023-03-03T22:41:18;5.70;99.90